Terminal Aerodrome Forecast
Issued by NWS Pittsburgh, PA

Current Version | Previous Version | Text Only | Print | Product List | Glossary Off
Versions: 1 2 3 4 5 6 7 8 9 10 11 12 13 14 15 16 17 18 19 20 21 22 23 24 25 26 27 28 29 30 31 32

000
FTUS41 KPBZ 061845 AAA
TAFPIT
TAF AMD
KPIT 061845Z 0619/0724 23006KT P6SM VCSH BKN035
      TEMPO 0619/0623 6SM -SHRA SCT020 BKN030
     FM070100 21005KT P6SM BKN050
     FM071900 21010G16KT P6SM BKN050 PROB30 0721/0724 P6SM -TSRA
      BKN040CB=

USA.gov is the U.S. government's official web portal to all federal, state and local government web resources and services.